Terminal Aerodrome Forecast
Issued by NWS Wakefield, VA

Home | Current Version | Previous Version | Text Only | Print | Product List | Glossary On
Versions: 1 2 3 4 5 6 7 8 9 10 11 12 13 14 15 16 17 18 19 20 21 22 23
000
FTUS41 KAKQ 250536
TAFECG
TAF
KECG 250536Z 2506/2606 14011KT P6SM -RA SCT015 BKN025 OVC060
     FM250900 18012KT P6SM VCSH SCT015 BKN035 OVC080
     FM251100 21012KT P6SM BKN045
     FM252300 24015G23KT P6SM SCT100
     FM260200 24014G21KT P6SM BKN200=

USA.gov is the U.S. government's official web portal to all federal, state and local government web resources and services.